sensor_id;sensor_type;location;lat;lon;timestamp;pressure;altitude;pressure_sealevel;temperature;humidity
46598;BME280;32318;48.858;8.252;2023-09-12T00:04:45;99807.94;;;21.90;64.67
46598;BME280;32318;48.858;8.252;2023-09-12T00:12:49;99804.00;;;21.81;66.54
46598;BME280;32318;48.858;8.252;2023-09-12T00:20:50;99800.41;;;21.75;65.38
46598;BME280;32318;48.858;8.252;2023-09-12T00:28:50;99796.50;;;21.54;66.96
46598;BME280;32318;48.858;8.252;2023-09-12T00:36:51;99792.25;;;21.41;66.65
46598;BME280;32318;48.858;8.252;2023-09-12T00:44:51;99799.00;;;21.38;66.79
46598;BME280;32318;48.858;8.252;2023-09-12T00:52:53;99789.69;;;21.34;66.95
46598;BME280;32318;48.858;8.252;2023-09-12T01:00:56;99789.44;;;21.19;68.17
46598;BME280;32318;48.858;8.252;2023-09-12T01:08:56;99794.69;;;21.08;69.32
46598;BME280;32318;48.858;8.252;2023-09-12T01:16:57;99789.97;;;21.04;69.97
46598;BME280;32318;48.858;8.252;2023-09-12T01:26:01;99801.69;;;21.04;71.71
46598;BME280;32318;48.858;8.252;2023-09-12T01:33:42;99785.06;;;21.00;69.26
46598;BME280;32318;48.858;8.252;2023-09-12T01:41:45;99790.63;;;20.94;69.81
46598;BME280;32318;48.858;8.252;2023-09-12T01:49:48;99783.03;;;20.79;73.09
46598;BME280;32318;48.858;8.252;2023-09-12T01:57:49;99778.69;;;20.78;70.18
46598;BME280;32318;48.858;8.252;2023-09-12T02:05:50;99789.53;;;20.66;70.70
46598;BME280;32318;48.858;8.252;2023-09-12T02:13:50;99783.78;;;20.62;70.79
46598;BME280;32318;48.858;8.252;2023-09-12T02:21:50;99797.59;;;20.61;71.00
46598;BME280;32318;48.858;8.252;2023-09-12T02:29:50;99800.53;;;20.59;70.77
46598;BME280;32318;48.858;8.252;2023-09-12T02:37:51;99789.31;;;20.67;70.73
46598;BME280;32318;48.858;8.252;2023-09-12T02:45:51;99796.28;;;20.63;71.07
46598;BME280;32318;48.858;8.252;2023-09-12T02:53:51;99793.56;;;20.63;70.89
46598;BME280;32318;48.858;8.252;2023-09-12T03:01:52;99790.91;;;20.51;71.39
46598;BME280;32318;48.858;8.252;2023-09-12T03:09:52;99791.28;;;20.43;71.61
46598;BME280;32318;48.858;8.252;2023-09-12T03:17:52;99783.75;;;20.45;71.88
46598;BME280;32318;48.858;8.252;2023-09-12T03:25:52;99786.94;;;20.42;72.23
46598;BME280;32318;48.858;8.252;2023-09-12T03:33:53;99781.50;;;20.42;71.92
46598;BME280;32318;48.858;8.252;2023-09-12T03:41:53;99766.63;;;20.45;70.93
46598;BME280;32318;48.858;8.252;2023-09-12T03:49:53;99788.00;;;20.41;71.59
46598;BME280;32318;48.858;8.252;2023-09-12T03:57:53;99772.69;;;20.35;71.81
46598;BME280;32318;48.858;8.252;2023-09-12T04:05:54;99773.16;;;20.32;71.88
46598;BME280;32318;48.858;8.252;2023-09-12T04:13:54;99778.59;;;20.32;72.61
46598;BME280;32318;48.858;8.252;2023-09-12T04:21:54;99783.66;;;20.28;72.19
46598;BME280;32318;48.858;8.252;2023-09-12T04:29:54;99788.28;;;20.28;72.56
46598;BME280;32318;48.858;8.252;2023-09-12T04:37:55;99794.41;;;20.23;72.81
46598;BME280;32318;48.858;8.252;2023-09-12T04:45:55;99797.59;;;20.20;73.29
46598;BME280;32318;48.858;8.252;2023-09-12T04:53:56;99806.44;;;20.15;73.37
46598;BME280;32318;48.858;8.252;2023-09-12T05:01:56;99813.16;;;20.13;73.35
46598;BME280;32318;48.858;8.252;2023-09-12T05:09:56;99820.34;;;20.07;73.40
46598;BME280;32318;48.858;8.252;2023-09-12T05:17:57;99820.47;;;20.00;74.18
46598;BME280;32318;48.858;8.252;2023-09-12T05:25:57;99821.19;;;19.96;73.84
46598;BME280;32318;48.858;8.252;2023-09-12T05:33:57;99834.88;;;19.89;74.04
46598;BME280;32318;48.858;8.252;2023-09-12T05:41:58;99831.91;;;19.90;73.96
46598;BME280;32318;48.858;8.252;2023-09-12T05:49:58;99823.78;;;19.90;72.62
46598;BME280;32318;48.858;8.252;2023-09-12T05:57:59;99814.34;;;19.93;72.71
46598;BME280;32318;48.858;8.252;2023-09-12T06:05:59;99826.28;;;20.45;71.17
46598;BME280;32318;48.858;8.252;2023-09-12T06:14:00;99841.00;;;21.02;69.01
46598;BME280;32318;48.858;8.252;2023-09-12T06:22:00;99843.47;;;21.03;68.75
46598;BME280;32318;48.858;8.252;2023-09-12T06:30:00;99851.28;;;21.16;68.86
46598;BME280;32318;48.858;8.252;2023-09-12T06:38:01;99850.31;;;21.23;68.89
46598;BME280;32318;48.858;8.252;2023-09-12T06:46:01;99841.34;;;21.22;69.42
46598;BME280;32318;48.858;8.252;2023-09-12T06:54:01;99850.91;;;21.42;69.09
46598;BME280;32318;48.858;8.252;2023-09-12T07:02:01;99851.91;;;21.53;69.11
46598;BME280;32318;48.858;8.252;2023-09-12T07:10:02;99861.91;;;21.64;68.82
46598;BME280;32318;48.858;8.252;2023-09-12T07:18:03;99856.88;;;21.90;68.74
46598;BME280;32318;48.858;8.252;2023-09-12T07:26:05;99848.66;;;22.24;67.66
46598;BME280;32318;48.858;8.252;2023-09-12T07:34:05;99855.16;;;22.62;66.47
46598;BME280;32318;48.858;8.252;2023-09-12T07:42:06;99854.06;;;22.63;66.77
46598;BME280;32318;48.858;8.252;2023-09-12T07:50:07;99867.56;;;22.75;67.11
46598;BME280;32318;48.858;8.252;2023-09-12T07:58:07;99873.78;;;22.98;66.32
46598;BME280;32318;48.858;8.252;2023-09-12T08:06:07;99878.19;;;23.26;65.81
46598;BME280;32318;48.858;8.252;2023-09-12T08:14:07;99891.31;;;23.34;65.18
46598;BME280;32318;48.858;8.252;2023-09-12T08:22:09;99890.97;;;23.26;65.41
46598;BME280;32318;48.858;8.252;2023-09-12T08:30:10;99900.78;;;23.54;65.10
46598;BME280;32318;48.858;8.252;2023-09-12T08:38:11;99900.69;;;23.76;64.72
46598;BME280;32318;48.858;8.252;2023-09-12T08:46:12;99892.06;;;23.90;64.75
46598;BME280;32318;48.858;8.252;2023-09-12T08:54:12;99898.34;;;23.90;65.24
46598;BME280;32318;48.858;8.252;2023-09-12T09:02:13;99884.13;;;23.83;65.13
46598;BME280;32318;48.858;8.252;2023-09-12T09:10:16;99878.88;;;24.09;64.75
46598;BME280;32318;48.858;8.252;2023-09-12T09:18:16;99882.00;;;24.33;64.31
46598;BME280;32318;48.858;8.252;2023-09-12T09:26:18;99870.13;;;24.60;63.70
46598;BME280;32318;48.858;8.252;2023-09-12T09:34:21;99871.63;;;24.94;63.12
46598;BME280;32318;48.858;8.252;2023-09-12T09:42:21;99875.47;;;25.03;61.96
46598;BME280;32318;48.858;8.252;2023-09-12T09:50:22;99883.13;;;25.06;62.45
46598;BME280;32318;48.858;8.252;2023-09-12T09:58:23;99872.22;;;25.16;62.00
46598;BME280;32318;48.858;8.252;2023-09-12T10:06:24;99864.63;;;25.44;62.34
46598;BME280;32318;48.858;8.252;2023-09-12T10:14:26;99852.63;;;25.40;61.81
46598;BME280;32318;48.858;8.252;2023-09-12T10:22:40;99847.16;;;25.56;61.32
46598;BME280;32318;48.858;8.252;2023-09-12T10:30:44;99844.09;;;25.83;60.57
46598;BME280;32318;48.858;8.252;2023-09-12T10:38:47;99832.31;;;26.13;59.39
46598;BME280;32318;48.858;8.252;2023-09-12T10:46:48;99832.25;;;26.34;58.96
46598;BME280;32318;48.858;8.252;2023-09-12T10:54:49;99825.88;;;26.49;57.97
46598;BME280;32318;48.858;8.252;2023-09-12T11:02:49;99825.31;;;26.57;57.97
46598;BME280;32318;48.858;8.252;2023-09-12T11:11:16;99821.06;;;26.81;55.36
46598;BME280;32318;48.858;8.252;2023-09-12T11:19:19;99806.59;;;27.15;56.57
46598;BME280;32318;48.858;8.252;2023-09-12T11:27:20;99808.59;;;27.44;55.58
46598;BME280;32318;48.858;8.252;2023-09-12T11:35:25;99809.47;;;27.68;54.91
46598;BME280;32318;48.858;8.252;2023-09-12T11:43:27;99797.47;;;27.89;51.90
46598;BME280;32318;48.858;8.252;2023-09-12T11:51:27;99787.09;;;28.10;51.94
46598;BME280;32318;48.858;8.252;2023-09-12T11:59:30;99789.78;;;28.15;48.07
46598;BME280;32318;48.858;8.252;2023-09-12T12:07:30;99785.22;;;28.29;49.05
46598;BME280;32318;48.858;8.252;2023-09-12T12:15:30;99783.75;;;28.56;46.53
46598;BME280;32318;48.858;8.252;2023-09-12T12:23:31;99774.31;;;28.62;46.27
46598;BME280;32318;48.858;8.252;2023-09-12T12:31:31;99773.16;;;28.69;46.79
46598;BME280;32318;48.858;8.252;2023-09-12T12:39:31;99754.06;;;28.96;45.29
46598;BME280;32318;48.858;8.252;2023-09-12T12:47:32;99755.31;;;29.04;45.23
46598;BME280;32318;48.858;8.252;2023-09-12T12:55:33;99750.28;;;29.25;44.63
46598;BME280;32318;48.858;8.252;2023-09-12T13:03:35;99745.28;;;29.61;43.56
46598;BME280;32318;48.858;8.252;2023-09-12T13:11:35;99733.06;;;29.81;43.00
46598;BME280;32318;48.858;8.252;2023-09-12T13:19:35;99732.06;;;29.91;42.48
46598;BME280;32318;48.858;8.252;2023-09-12T13:27:36;99722.47;;;29.88;41.22
46598;BME280;32318;48.858;8.252;2023-09-12T13:35:37;99700.97;;;30.04;41.40
46598;BME280;32318;48.858;8.252;2023-09-12T13:43:37;99703.28;;;30.25;40.45
46598;BME280;32318;48.858;8.252;2023-09-12T13:51:37;99697.16;;;30.28;37.40
46598;BME280;32318;48.858;8.252;2023-09-12T13:59:38;99682.03;;;30.39;39.59
46598;BME280;32318;48.858;8.252;2023-09-12T14:07:38;99675.78;;;30.47;39.93
46598;BME280;32318;48.858;8.252;2023-09-12T14:15:39;99677.31;;;30.40;40.50
46598;BME280;32318;48.858;8.252;2023-09-12T14:23:40;99672.66;;;30.40;40.20
46598;BME280;32318;48.858;8.252;2023-09-12T14:31:40;99673.97;;;30.43;39.51
46598;BME280;32318;48.858;8.252;2023-09-12T14:39:49;99682.84;;;30.40;39.27
46598;BME280;32318;48.858;8.252;2023-09-12T14:47:49;99679.97;;;30.45;38.95
46598;BME280;32318;48.858;8.252;2023-09-12T14:55:49;99672.91;;;30.52;38.07
46598;BME280;32318;48.858;8.252;2023-09-12T15:03:50;99660.16;;;30.57;36.35
46598;BME280;32318;48.858;8.252;2023-09-12T15:11:51;99644.00;;;30.64;37.14
46598;BME280;32318;48.858;8.252;2023-09-12T15:19:51;99627.44;;;30.55;36.60
46598;BME280;32318;48.858;8.252;2023-09-12T15:27:51;99620.38;;;30.49;37.13
46598;BME280;32318;48.858;8.252;2023-09-12T15:35:51;99619.44;;;30.31;36.81
46598;BME280;32318;48.858;8.252;2023-09-12T15:43:52;99623.50;;;30.11;36.40
46598;BME280;32318;48.858;8.252;2023-09-12T15:51:52;99633.41;;;29.98;36.66
46598;BME280;32318;48.858;8.252;2023-09-12T15:59:53;99642.59;;;29.79;37.26
46598;BME280;32318;48.858;8.252;2023-09-12T16:07:53;99637.81;;;29.71;37.34
46598;BME280;32318;48.858;8.252;2023-09-12T16:15:53;99636.59;;;29.63;37.43
46598;BME280;32318;48.858;8.252;2023-09-12T16:23:54;99636.09;;;29.47;37.45
46598;BME280;32318;48.858;8.252;2023-09-12T16:31:54;99637.22;;;29.32;38.09
46598;BME280;32318;48.858;8.252;2023-09-12T16:39:54;99633.59;;;29.18;39.56
46598;BME280;32318;48.858;8.252;2023-09-12T16:47:55;99634.00;;;29.11;39.65
46598;BME280;32318;48.858;8.252;2023-09-12T16:55:55;99623.91;;;28.92;40.34
46598;BME280;32318;48.858;8.252;2023-09-12T17:04:01;99618.69;;;28.77;41.62
46598;BME280;32318;48.858;8.252;2023-09-12T17:12:01;99621.34;;;28.30;42.52
46598;BME280;32318;48.858;8.252;2023-09-12T17:20:01;99626.53;;;28.12;44.07
46598;BME280;32318;48.858;8.252;2023-09-12T17:28:02;99614.53;;;27.84;45.17
46598;BME280;32318;48.858;8.252;2023-09-12T17:36:02;99616.06;;;27.52;46.81
46598;BME280;32318;48.858;8.252;2023-09-12T17:44:03;99640.28;;;27.15;48.26
46598;BME280;32318;48.858;8.252;2023-09-12T17:52:05;99658.88;;;26.89;48.15
46598;BME280;32318;48.858;8.252;2023-09-12T18:00:06;99661.22;;;26.66;47.92
46598;BME280;32318;48.858;8.252;2023-09-12T18:08:06;99665.69;;;26.57;47.95
46598;BME280;32318;48.858;8.252;2023-09-12T18:16:06;99683.06;;;26.37;48.42
46598;BME280;32318;48.858;8.252;2023-09-12T18:24:07;99701.25;;;26.07;49.57
46598;BME280;32318;48.858;8.252;2023-09-12T18:32:07;99727.31;;;25.89;50.15
46598;BME280;32318;48.858;8.252;2023-09-12T18:40:08;99739.13;;;25.79;50.18
46598;BME280;32318;48.858;8.252;2023-09-12T18:48:08;99761.28;;;25.67;51.06
46598;BME280;32318;48.858;8.252;2023-09-12T18:56:08;99778.53;;;25.57;50.17
46598;BME280;32318;48.858;8.252;2023-09-12T19:12:23;99825.25;;;25.50;48.61
46598;BME280;32318;48.858;8.252;2023-09-12T19:20:23;99827.72;;;25.47;48.19
46598;BME280;32318;48.858;8.252;2023-09-12T19:28:23;99847.16;;;25.40;47.33
46598;BME280;32318;48.858;8.252;2023-09-12T19:36:24;99856.94;;;25.36;47.02
46598;BME280;32318;48.858;8.252;2023-09-12T19:44:24;99864.03;;;25.21;47.04
46598;BME280;32318;48.858;8.252;2023-09-12T19:52:26;99871.66;;;25.04;48.23
46598;BME280;32318;48.858;8.252;2023-09-12T20:00:27;99882.53;;;24.83;50.64
46598;BME280;32318;48.858;8.252;2023-09-12T20:08:28;99907.53;;;24.65;50.96
46598;BME280;32318;48.858;8.252;2023-09-12T20:16:28;99910.19;;;24.49;51.09
46598;BME280;32318;48.858;8.252;2023-09-12T20:24:28;99911.75;;;24.35;52.01
46598;BME280;32318;48.858;8.252;2023-09-12T20:32:28;99924.75;;;24.17;52.19
46598;BME280;32318;48.858;8.252;2023-09-12T20:40:29;99943.72;;;24.02;53.08
46598;BME280;32318;48.858;8.252;2023-09-12T20:48:29;99948.56;;;23.94;53.93
46598;BME280;32318;48.858;8.252;2023-09-12T20:56:31;99948.47;;;23.84;54.00
46598;BME280;32318;48.858;8.252;2023-09-12T21:04:33;99955.47;;;23.75;54.59
46598;BME280;32318;48.858;8.252;2023-09-12T21:12:33;99971.72;;;23.64;55.97
46598;BME280;32318;48.858;8.252;2023-09-12T21:20:34;99979.00;;;23.54;55.94
46598;BME280;32318;48.858;8.252;2023-09-12T21:28:34;99975.63;;;23.46;56.26
46598;BME280;32318;48.858;8.252;2023-09-12T21:36:35;99986.66;;;23.34;57.33
46598;BME280;32318;48.858;8.252;2023-09-12T21:44:36;99992.00;;;23.24;57.57
46598;BME280;32318;48.858;8.252;2023-09-12T21:52:37;100014.53;;;23.19;58.00
46598;BME280;32318;48.858;8.252;2023-09-12T22:00:37;100020.75;;;23.15;58.14
46598;BME280;32318;48.858;8.252;2023-09-12T22:08:39;100037.84;;;23.10;58.35
46598;BME280;32318;48.858;8.252;2023-09-12T22:16:40;100043.47;;;23.03;59.22
46598;BME280;32318;48.858;8.252;2023-09-12T22:24:40;100049.34;;;22.95;59.34
46598;BME280;32318;48.858;8.252;2023-09-12T22:32:40;100049.78;;;22.87;59.84
46598;BME280;32318;48.858;8.252;2023-09-12T22:40:40;100061.16;;;22.84;60.08
46598;BME280;32318;48.858;8.252;2023-09-12T22:48:41;100060.59;;;22.82;60.18
46598;BME280;32318;48.858;8.252;2023-09-12T22:56:41;100062.97;;;22.78;61.10
46598;BME280;32318;48.858;8.252;2023-09-12T23:04:41;100073.28;;;22.76;60.57
46598;BME280;32318;48.858;8.252;2023-09-12T23:12:42;100081.13;;;22.72;60.86
46598;BME280;32318;48.858;8.252;2023-09-12T23:20:42;100087.56;;;22.66;60.82
46598;BME280;32318;48.858;8.252;2023-09-12T23:28:44;100093.69;;;22.56;61.31
46598;BME280;32318;48.858;8.252;2023-09-12T23:36:44;100088.25;;;22.56;61.87
46598;BME280;32318;48.858;8.252;2023-09-12T23:44:45;100075.47;;;22.57;61.87
46598;BME280;32318;48.858;8.252;2023-09-12T23:52:45;100069.19;;;22.56;62.12
